createdAt,value
2018-12-31T00:01:05.206Z,85.00
2018-12-31T00:03:33.475Z,85.00
2018-12-31T00:06:02.287Z,85.00
2018-12-31T00:08:30.342Z,85.00
2018-12-31T00:10:58.324Z,85.00
2018-12-31T00:13:26.379Z,85.10
2018-12-31T00:15:54.275Z,85.00
2018-12-31T00:18:22.239Z,85.10
2018-12-31T00:20:50.206Z,84.90
2018-12-31T00:23:18.264Z,85.00
2018-12-31T00:25:46.227Z,85.00
2018-12-31T00:28:14.239Z,85.00
2018-12-31T00:30:42.581Z,84.90
2018-12-31T00:33:10.624Z,85.00
2018-12-31T00:35:38.550Z,85.00
2018-12-31T00:38:06.800Z,85.00
2018-12-31T00:40:36.194Z,85.00
2018-12-31T00:43:07.522Z,85.00
2018-12-31T00:45:35.428Z,84.40
2018-12-31T00:48:03.310Z,85.00
2018-12-31T00:50:31.191Z,85.00
2018-12-31T00:52:59.139Z,85.00
2018-12-31T00:55:27.131Z,85.00
2018-12-31T00:57:55.026Z,85.10
2018-12-31T01:00:23.071Z,84.90
2018-12-31T01:02:50.963Z,84.90
2018-12-31T01:05:19.589Z,85.00
2018-12-31T01:07:48.384Z,85.00
2018-12-31T01:10:17.167Z,85.10
2018-12-31T01:12:45.853Z,85.00
2018-12-31T01:15:15.063Z,85.00
2018-12-31T01:17:44.553Z,85.00
2018-12-31T01:20:12.492Z,85.00
2018-12-31T01:22:40.499Z,85.10
2018-12-31T01:25:08.391Z,85.00
2018-12-31T01:27:36.300Z,85.10
2018-12-31T01:30:04.589Z,85.10
2018-12-31T01:32:32.505Z,85.00
2018-12-31T01:35:03.313Z,85.10
2018-12-31T01:37:32.298Z,85.10
2018-12-31T01:40:00.287Z,85.20
2018-12-31T01:42:28.163Z,85.20
2018-12-31T01:44:56.237Z,85.20
2018-12-31T01:47:24.269Z,85.10
2018-12-31T01:49:52.666Z,85.10
2018-12-31T01:52:21.045Z,85.10
2018-12-31T01:54:49.362Z,85.10
2018-12-31T01:57:17.295Z,85.10
2018-12-31T01:59:45.392Z,85.20
2018-12-31T02:02:13.336Z,85.20
2018-12-31T02:04:41.291Z,85.20
2018-12-31T02:07:09.171Z,85.20
2018-12-31T02:09:37.125Z,85.20
2018-12-31T02:12:05.027Z,85.20
2018-12-31T02:14:39.035Z,85.20
2018-12-31T02:17:07.087Z,85.10
2018-12-31T02:19:35.079Z,85.20
2018-12-31T02:22:03.065Z,85.20
2018-12-31T02:24:31.722Z,85.20
2018-12-31T02:27:00.506Z,85.20
2018-12-31T02:29:28.450Z,85.20
2018-12-31T02:31:56.431Z,85.30
2018-12-31T02:34:24.371Z,85.40
2018-12-31T02:36:52.313Z,85.10
2018-12-31T02:39:20.264Z,85.20
2018-12-31T02:41:48.158Z,85.20
2018-12-31T02:44:16.237Z,85.20
2018-12-31T02:46:44.152Z,85.20
2018-12-31T02:49:12.166Z,85.20
2018-12-31T02:51:40.040Z,85.20
2018-12-31T02:54:08.108Z,85.20
2018-12-31T02:56:37.187Z,85.10
2018-12-31T02:59:06.059Z,85.20
2018-12-31T03:01:34.746Z,85.30
2018-12-31T03:04:03.432Z,85.20
2018-12-31T03:06:31.916Z,85.20
2018-12-31T03:09:01.839Z,85.00
2018-12-31T03:11:30.415Z,86.00
2018-12-31T03:13:59.430Z,85.30
2018-12-31T03:16:27.511Z,85.10
2018-12-31T03:18:55.417Z,85.30
2018-12-31T03:21:24.580Z,85.30
2018-12-31T03:23:52.617Z,85.30
2018-12-31T03:26:20.594Z,85.20
2018-12-31T03:28:48.548Z,85.20
2018-12-31T03:31:16.749Z,85.30
2018-12-31T03:33:44.616Z,85.30
2018-12-31T03:36:12.686Z,85.30
2018-12-31T03:38:40.704Z,85.20
2018-12-31T03:41:09.444Z,85.30
2018-12-31T03:43:38.439Z,85.20
2018-12-31T03:46:06.568Z,85.40
2018-12-31T03:48:34.934Z,85.40
2018-12-31T03:51:03.230Z,85.30
2018-12-31T03:53:31.255Z,85.30
2018-12-31T03:55:59.488Z,85.20
2018-12-31T03:58:27.625Z,85.30
2018-12-31T04:00:55.779Z,85.20
2018-12-31T04:03:23.812Z,85.10
2018-12-31T04:05:52.010Z,85.20
2018-12-31T04:08:20.071Z,85.20
2018-12-31T04:10:48.121Z,85.20
2018-12-31T04:13:16.086Z,85.40
2018-12-31T04:15:45.322Z,85.50
2018-12-31T04:18:13.537Z,85.40
2018-12-31T04:20:42.524Z,85.20
2018-12-31T04:23:10.733Z,85.30
2018-12-31T04:25:38.903Z,85.30
2018-12-31T04:28:06.931Z,85.30
2018-12-31T04:30:34.925Z,85.40
2018-12-31T04:33:02.957Z,85.40
2018-12-31T04:35:31.257Z,85.30
2018-12-31T04:37:59.464Z,85.30
2018-12-31T04:40:46.525Z,85.30
2018-12-31T04:43:33.624Z,85.20
2018-12-31T04:46:20.705Z,85.10
2018-12-31T04:48:48.550Z,85.50
2018-12-31T04:51:16.427Z,85.30
2018-12-31T04:53:44.338Z,85.40
2018-12-31T04:56:12.192Z,85.30
2018-12-31T04:58:40.026Z,85.30
2018-12-31T05:01:11.999Z,85.30
2018-12-31T05:03:39.828Z,85.20
2018-12-31T05:06:16.108Z,85.30
2018-12-31T05:08:46.552Z,85.40
2018-12-31T05:11:16.378Z,85.30
2018-12-31T05:13:44.288Z,85.40
2018-12-31T05:16:12.163Z,85.40
2018-12-31T05:18:40.004Z,85.30
2018-12-31T05:21:08.915Z,85.30
2018-12-31T05:23:36.722Z,85.30
2018-12-31T05:26:04.571Z,85.20
2018-12-31T05:28:32.392Z,85.20
2018-12-31T05:31:02.681Z,85.20
2018-12-31T05:33:30.487Z,85.20
2018-12-31T05:36:06.325Z,85.10
2018-12-31T05:38:34.251Z,85.10
2018-12-31T05:41:04.871Z,85.00
2018-12-31T05:43:32.679Z,85.00
2018-12-31T05:46:00.478Z,85.10
2018-12-31T05:48:28.301Z,85.10
2018-12-31T05:50:56.187Z,85.10
2018-12-31T05:53:23.996Z,85.10
2018-12-31T05:55:51.807Z,85.80
2018-12-31T05:58:19.694Z,85.10
2018-12-31T06:00:47.508Z,85.10
2018-12-31T06:03:15.318Z,85.10
2018-12-31T06:05:43.123Z,85.00
2018-12-31T06:08:10.915Z,85.10
2018-12-31T06:10:38.702Z,85.00
2018-12-31T06:13:07.515Z,84.90
2018-12-31T06:15:35.322Z,85.00
2018-12-31T06:18:03.202Z,85.00
2018-12-31T06:20:31.006Z,85.00
2018-12-31T06:22:58.863Z,84.90
2018-12-31T06:25:26.654Z,85.10
2018-12-31T06:27:54.460Z,85.00
2018-12-31T06:30:22.278Z,85.10
2018-12-31T06:32:50.103Z,85.10
2018-12-31T06:35:17.902Z,85.10
2018-12-31T06:37:45.718Z,85.00
2018-12-31T06:40:13.525Z,85.10
2018-12-31T06:42:41.342Z,85.00
2018-12-31T06:45:09.133Z,85.00
2018-12-31T06:47:38.417Z,85.00
2018-12-31T06:50:06.228Z,85.00
2018-12-31T06:52:34.161Z,85.00
2018-12-31T06:55:02.069Z,85.10
2018-12-31T06:57:29.875Z,85.10
2018-12-31T06:59:57.657Z,85.10
2018-12-31T07:02:25.560Z,85.10
2018-12-31T07:04:53.357Z,85.10
2018-12-31T07:07:21.152Z,85.20
2018-12-31T07:09:48.953Z,85.10
2018-12-31T07:12:16.795Z,85.00
2018-12-31T07:14:44.638Z,85.10
2018-12-31T07:17:12.458Z,85.00
2018-12-31T07:19:40.486Z,85.10
2018-12-31T07:22:08.435Z,85.00
2018-12-31T07:24:36.251Z,84.90
2018-12-31T07:27:09.976Z,84.90
2018-12-31T07:29:37.788Z,84.90
2018-12-31T07:32:05.591Z,84.80
2018-12-31T07:34:33.407Z,84.80
2018-12-31T07:37:01.223Z,84.80
2018-12-31T07:39:29.033Z,84.70
2018-12-31T07:41:56.846Z,84.70
2018-12-31T07:44:24.651Z,84.70
2018-12-31T07:46:52.450Z,84.70
2018-12-31T07:49:20.246Z,84.60
2018-12-31T07:51:48.023Z,84.60
2018-12-31T07:54:15.876Z,84.50
2018-12-31T07:56:43.686Z,84.50
2018-12-31T07:59:11.529Z,84.50
2018-12-31T08:01:39.342Z,84.50
2018-12-31T08:04:07.158Z,84.50
2018-12-31T08:06:34.955Z,84.50
2018-12-31T08:09:03.247Z,84.40
2018-12-31T08:11:31.043Z,84.40
2018-12-31T08:13:59.019Z,84.30
2018-12-31T08:16:29.614Z,84.30
2018-12-31T08:18:57.403Z,84.30
2018-12-31T08:21:25.263Z,84.30
2018-12-31T08:23:53.109Z,84.50
2018-12-31T08:26:20.903Z,84.40
2018-12-31T08:28:48.700Z,84.30
2018-12-31T08:31:16.513Z,84.40
2018-12-31T08:33:44.356Z,84.30
2018-12-31T08:36:12.200Z,84.20
2018-12-31T08:38:40.083Z,84.30
2018-12-31T08:41:07.868Z,84.30
2018-12-31T08:43:35.672Z,84.30
2018-12-31T08:46:03.519Z,84.30
2018-12-31T08:48:31.588Z,84.30
2018-12-31T08:50:59.390Z,84.30
2018-12-31T08:53:27.195Z,84.20
2018-12-31T08:55:55.003Z,84.20
2018-12-31T08:58:22.799Z,84.20
2018-12-31T09:00:50.710Z,84.20
2018-12-31T09:03:18.498Z,84.20
2018-12-31T09:05:48.499Z,84.20
2018-12-31T09:08:16.335Z,84.20
2018-12-31T09:10:44.151Z,84.70
2018-12-31T09:13:11.959Z,84.10
2018-12-31T09:15:39.764Z,84.20
2018-12-31T09:18:07.795Z,84.20
2018-12-31T09:20:37.749Z,84.60
2018-12-31T09:23:05.803Z,84.10
2018-12-31T09:25:38.615Z,84.10
2018-12-31T09:28:06.757Z,84.00
2018-12-31T09:30:34.837Z,84.00
2018-12-31T09:33:05.890Z,84.00
2018-12-31T09:35:33.917Z,84.00
2018-12-31T09:38:01.855Z,84.00
2018-12-31T09:40:29.900Z,84.10
2018-12-31T09:42:58.560Z,84.00
2018-12-31T09:45:26.438Z,84.00
2018-12-31T09:47:54.633Z,84.00
2018-12-31T09:50:22.514Z,83.90
2018-12-31T09:52:50.545Z,84.10
2018-12-31T09:55:18.556Z,84.00
2018-12-31T09:57:48.977Z,83.90
2018-12-31T10:00:16.961Z,84.00
2018-12-31T10:02:44.928Z,84.10
2018-12-31T10:05:13.140Z,83.90
2018-12-31T10:07:41.185Z,83.90
2018-12-31T10:10:09.332Z,84.00
2018-12-31T10:12:40.407Z,84.10
2018-12-31T10:15:12.709Z,84.00
2018-12-31T10:17:40.666Z,84.00
2018-12-31T10:20:08.623Z,84.10
2018-12-31T10:22:36.464Z,83.90
2018-12-31T10:25:04.350Z,84.00
2018-12-31T10:27:32.222Z,84.00
2018-12-31T10:30:00.189Z,83.90
2018-12-31T10:32:28.615Z,83.90
2018-12-31T10:34:56.608Z,83.80
2018-12-31T10:37:24.483Z,83.90
2018-12-31T10:39:52.351Z,83.90
2018-12-31T10:42:20.278Z,83.90
2018-12-31T10:44:48.245Z,83.90
2018-12-31T10:47:16.247Z,83.70
2018-12-31T10:50:03.356Z,83.70
2018-12-31T10:52:50.495Z,83.70
2018-12-31T10:55:37.592Z,83.80
2018-12-31T10:58:24.727Z,83.70
2018-12-31T11:01:11.851Z,83.70
2018-12-31T11:03:58.946Z,83.70
2018-12-31T11:06:46.030Z,83.70
2018-12-31T11:09:33.155Z,83.70
2018-12-31T11:12:20.240Z,83.70
2018-12-31T11:38:39.808Z,83.60
2018-12-31T11:41:08.445Z,83.50
2018-12-31T11:43:36.410Z,83.60
2018-12-31T11:46:04.357Z,83.40
2018-12-31T11:48:32.577Z,84.00
2018-12-31T11:51:00.645Z,83.40
2018-12-31T11:53:28.715Z,83.20
2018-12-31T11:55:56.755Z,83.20
2018-12-31T11:58:24.873Z,83.20
2018-12-31T12:00:52.949Z,83.20
2018-12-31T12:03:20.993Z,83.20
2018-12-31T12:05:49.039Z,83.30
2018-12-31T12:08:17.190Z,83.20
2018-12-31T12:10:45.221Z,83.30
2018-12-31T12:13:13.906Z,83.40
2018-12-31T12:15:42.436Z,83.40
2018-12-31T12:18:10.845Z,83.50
2018-12-31T12:20:41.435Z,83.50
2018-12-31T12:23:11.548Z,83.50
2018-12-31T12:25:39.628Z,83.50
2018-12-31T12:28:07.930Z,83.70
2018-12-31T12:30:35.998Z,83.50
2018-12-31T12:33:04.006Z,84.30
2018-12-31T12:35:32.019Z,83.50
2018-12-31T12:38:00.036Z,83.50
2018-12-31T12:40:34.445Z,83.50
2018-12-31T12:43:06.157Z,83.40
2018-12-31T12:45:36.400Z,83.50
2018-12-31T12:48:04.515Z,83.30
2018-12-31T12:50:32.439Z,83.40
2018-12-31T12:53:00.815Z,83.50
2018-12-31T12:55:28.841Z,83.50
2018-12-31T12:57:56.721Z,83.30
2018-12-31T13:00:24.859Z,83.50
2018-12-31T13:02:52.903Z,83.50
2018-12-31T13:05:21.575Z,83.50
2018-12-31T13:07:49.585Z,83.50
2018-12-31T13:10:17.515Z,83.60
2018-12-31T13:12:45.592Z,83.60
2018-12-31T13:15:13.622Z,83.60
2018-12-31T13:17:41.531Z,83.50
2018-12-31T13:20:10.074Z,83.50
2018-12-31T13:22:38.220Z,83.60
2018-12-31T13:25:06.516Z,83.50
2018-12-31T13:27:34.594Z,83.60
2018-12-31T13:30:02.765Z,83.50
2018-12-31T13:32:30.808Z,83.60
2018-12-31T13:34:58.943Z,83.60
2018-12-31T13:37:26.952Z,83.50
2018-12-31T13:39:57.992Z,83.60
2018-12-31T13:42:26.099Z,83.80
2018-12-31T13:44:54.332Z,83.60
2018-12-31T13:47:22.521Z,83.60
2018-12-31T13:49:50.635Z,83.60
2018-12-31T13:52:19.617Z,83.60
2018-12-31T13:54:47.853Z,83.70
2018-12-31T13:57:18.380Z,83.60
2018-12-31T13:59:46.561Z,83.70
2018-12-31T14:02:22.728Z,83.60
2018-12-31T14:04:50.722Z,83.60
2018-12-31T14:07:18.704Z,83.70
2018-12-31T14:09:46.835Z,83.70
2018-12-31T14:12:15.092Z,83.60
2018-12-31T14:14:42.987Z,83.70
2018-12-31T14:17:10.883Z,83.70
2018-12-31T14:19:38.905Z,83.70
2018-12-31T14:22:06.812Z,83.60
2018-12-31T14:24:35.309Z,83.60
2018-12-31T14:27:03.313Z,83.60
2018-12-31T14:29:31.207Z,83.50
2018-12-31T14:32:00.380Z,83.60
2018-12-31T14:34:29.922Z,83.60
2018-12-31T14:36:58.147Z,83.60
2018-12-31T14:39:26.074Z,83.70
2018-12-31T14:41:54.084Z,83.60
2018-12-31T14:44:21.951Z,83.60
2018-12-31T14:46:50.363Z,83.60
2018-12-31T14:49:18.358Z,83.60
2018-12-31T14:51:46.527Z,83.70
2018-12-31T14:54:14.503Z,83.70
2018-12-31T14:56:43.013Z,83.70
2018-12-31T14:59:11.909Z,83.70
2018-12-31T15:01:41.620Z,83.70
2018-12-31T15:04:10.426Z,83.70
2018-12-31T15:06:38.602Z,83.80
2018-12-31T15:09:06.858Z,83.60
2018-12-31T15:11:34.923Z,83.70
2018-12-31T15:14:02.982Z,83.70
2018-12-31T15:16:30.991Z,83.70
2018-12-31T15:18:59.027Z,83.80
2018-12-31T15:21:27.003Z,83.80
2018-12-31T15:23:55.165Z,83.60
2018-12-31T15:26:23.418Z,83.70
2018-12-31T15:28:51.511Z,83.60
2018-12-31T15:31:22.992Z,83.60
2018-12-31T15:33:51.026Z,83.60
2018-12-31T15:36:19.014Z,83.80
2018-12-31T15:38:47.390Z,83.80
2018-12-31T15:41:15.262Z,83.90
2018-12-31T15:43:43.195Z,83.90
2018-12-31T15:46:11.175Z,84.00
2018-12-31T15:48:39.298Z,83.90
2018-12-31T15:51:13.315Z,84.30
2018-12-31T15:53:43.155Z,85.20
2018-12-31T15:56:11.054Z,84.50
2018-12-31T15:58:40.459Z,84.70
2018-12-31T16:01:08.419Z,84.70
2018-12-31T16:03:36.325Z,84.80
2018-12-31T16:06:04.194Z,84.80
2018-12-31T16:08:32.874Z,84.80
2018-12-31T16:11:00.877Z,84.80
2018-12-31T16:13:28.968Z,84.70
2018-12-31T16:15:59.335Z,84.60
2018-12-31T16:18:31.815Z,84.50
2018-12-31T16:21:03.302Z,84.30
2018-12-31T16:23:34.211Z,84.30
2018-12-31T16:26:02.627Z,84.10
2018-12-31T16:28:31.979Z,84.10
2018-12-31T16:31:01.825Z,84.40
2018-12-31T16:33:30.162Z,84.50
2018-12-31T16:35:59.619Z,84.50
2018-12-31T16:38:33.361Z,84.40
2018-12-31T16:41:03.821Z,84.60
2018-12-31T16:43:44.129Z,84.30
2018-12-31T16:46:20.322Z,84.40
2018-12-31T16:48:49.956Z,84.30
2018-12-31T16:51:19.621Z,84.20
2018-12-31T16:53:47.920Z,84.30
2018-12-31T16:56:18.869Z,84.30
2018-12-31T16:58:50.207Z,84.30
2018-12-31T17:01:21.533Z,84.50
2018-12-31T17:03:49.999Z,84.50
2018-12-31T17:06:23.003Z,84.40
2018-12-31T17:09:01.830Z,84.30
2018-12-31T17:11:33.918Z,84.50
2018-12-31T17:14:03.440Z,84.30
2018-12-31T17:16:31.740Z,84.30
2018-12-31T17:18:59.964Z,84.00
2018-12-31T17:21:28.390Z,84.10
2018-12-31T17:23:58.560Z,84.00
2018-12-31T17:26:26.689Z,84.00
2018-12-31T17:28:55.040Z,84.20
2018-12-31T17:31:23.507Z,84.10
2018-12-31T17:33:55.260Z,84.10
2018-12-31T17:36:25.906Z,84.00
2018-12-31T17:39:03.068Z,84.00
2018-12-31T17:41:31.664Z,84.20
2018-12-31T17:44:03.191Z,83.90
2018-12-31T17:46:35.318Z,84.10
2018-12-31T17:49:09.333Z,84.10
2018-12-31T17:51:56.558Z,84.00
2018-12-31T17:54:25.044Z,84.10
2018-12-31T17:57:38.876Z,83.90
2018-12-31T18:10:43.625Z,84.10
2018-12-31T18:16:42.247Z,84.00
2018-12-31T18:19:28.246Z,84.00
2018-12-31T18:22:23.582Z,83.80
2018-12-31T18:25:02.004Z,83.90
2018-12-31T18:27:59.286Z,84.30
2018-12-31T18:30:31.403Z,84.10
2018-12-31T18:33:23.092Z,84.10
2018-12-31T18:36:26.180Z,84.20
2018-12-31T18:38:29.130Z,84.00
2018-12-31T18:41:20.448Z,84.00
2018-12-31T18:44:15.284Z,84.10
2018-12-31T18:47:09.967Z,84.20
2018-12-31T18:49:49.174Z,84.40
2018-12-31T18:52:31.442Z,84.40
2018-12-31T18:55:07.103Z,84.20
2018-12-31T18:57:34.894Z,84.10
2018-12-31T19:00:07.260Z,84.20
2018-12-31T19:02:45.788Z,84.20
2018-12-31T19:05:23.488Z,83.80
2018-12-31T19:08:08.168Z,84.30
2018-12-31T19:10:55.434Z,84.00
2018-12-31T19:13:51.613Z,83.70
2018-12-31T19:16:42.598Z,83.80
2018-12-31T19:19:32.955Z,84.40
2018-12-31T19:22:06.312Z,83.70
2018-12-31T19:24:36.188Z,83.50
2018-12-31T19:27:11.045Z,83.50
2018-12-31T19:29:39.831Z,83.50
2018-12-31T19:32:46.721Z,83.30
2018-12-31T19:35:36.299Z,83.20
2018-12-31T19:38:26.803Z,83.20
2018-12-31T19:41:19.443Z,83.10
2018-12-31T19:44:04.231Z,83.00
2018-12-31T19:46:48.982Z,83.20
2018-12-31T19:49:29.246Z,83.30
2018-12-31T19:52:18.215Z,83.40
2018-12-31T19:58:00.480Z,83.40
2018-12-31T20:01:18.207Z,83.60
2018-12-31T20:04:05.393Z,83.50
2018-12-31T20:07:03.553Z,83.50
2018-12-31T20:09:41.373Z,83.50
2018-12-31T20:12:22.824Z,83.50
2018-12-31T20:14:53.974Z,83.50
2018-12-31T20:17:59.105Z,83.80
2018-12-31T20:20:51.897Z,83.60
2018-12-31T20:29:24.377Z,84.30
2018-12-31T20:31:53.618Z,83.50
2018-12-31T20:34:40.022Z,83.60
2018-12-31T20:40:41.682Z,83.70
2018-12-31T20:43:17.211Z,83.70
2018-12-31T20:45:57.390Z,83.70
2018-12-31T20:48:54.885Z,83.50
2018-12-31T20:51:25.649Z,83.60
2018-12-31T20:54:04.610Z,83.60
2018-12-31T20:56:38.552Z,83.60
2018-12-31T20:59:13.999Z,83.60
2018-12-31T21:02:00.664Z,84.30
2018-12-31T21:04:40.843Z,83.60
2018-12-31T21:07:14.177Z,83.70
2018-12-31T21:09:52.951Z,83.60
2018-12-31T21:12:27.305Z,83.60
2018-12-31T21:14:56.094Z,83.70
2018-12-31T21:20:25.273Z,83.70
2018-12-31T21:22:54.308Z,83.80
2018-12-31T21:25:33.428Z,83.80
2018-12-31T21:28:08.530Z,83.70
2018-12-31T21:30:39.882Z,83.70
2018-12-31T21:33:29.968Z,83.80
2018-12-31T21:36:06.029Z,83.70
2018-12-31T21:38:41.373Z,83.60
2018-12-31T21:41:15.009Z,83.70
2018-12-31T21:43:58.235Z,83.70
2018-12-31T21:46:31.631Z,83.70
2018-12-31T21:49:10.562Z,83.80
2018-12-31T21:51:54.463Z,83.80
2018-12-31T21:54:26.489Z,83.80
2018-12-31T21:56:57.016Z,83.80
2018-12-31T21:59:30.555Z,83.80
2018-12-31T22:02:02.068Z,83.80
2018-12-31T22:04:56.101Z,83.70
2018-12-31T22:07:21.069Z,83.60
2018-12-31T22:09:56.848Z,83.70
2018-12-31T22:12:26.282Z,83.70
2018-12-31T22:15:01.053Z,83.70
2018-12-31T22:17:46.438Z,83.80
2018-12-31T22:20:12.353Z,83.60
2018-12-31T22:23:13.465Z,83.80
2018-12-31T22:25:44.281Z,84.00
2018-12-31T22:28:43.176Z,83.60
2018-12-31T22:31:19.088Z,83.70
2018-12-31T22:33:47.447Z,83.90
2018-12-31T22:36:15.577Z,84.10
2018-12-31T22:38:43.910Z,84.00
2018-12-31T22:41:12.331Z,83.80
2018-12-31T22:43:41.538Z,83.90
2018-12-31T22:46:10.998Z,83.90
2018-12-31T22:48:39.281Z,83.90
2018-12-31T22:51:08.720Z,83.80
2018-12-31T22:53:37.471Z,83.90
2018-12-31T22:56:05.691Z,83.80
2018-12-31T22:58:33.907Z,83.90
2018-12-31T23:01:02.416Z,83.80
2018-12-31T23:03:36.672Z,83.80
2018-12-31T23:06:04.915Z,83.90
2018-12-31T23:08:33.586Z,83.90
2018-12-31T23:11:01.842Z,84.00
2018-12-31T23:13:32.458Z,84.00
2018-12-31T23:16:01.521Z,83.90
2018-12-31T23:18:30.415Z,83.90
2018-12-31T23:20:59.312Z,84.00
2018-12-31T23:23:34.122Z,84.00
2018-12-31T23:26:02.811Z,83.90
2018-12-31T23:28:41.364Z,83.90
2018-12-31T23:31:15.177Z,84.00
2018-12-31T23:33:43.295Z,84.00
2018-12-31T23:36:12.387Z,84.00
2018-12-31T23:38:40.880Z,84.10
2018-12-31T23:41:09.254Z,84.00
2018-12-31T23:43:37.528Z,84.00
2018-12-31T23:46:05.658Z,84.10
2018-12-31T23:48:33.791Z,84.00
2018-12-31T23:51:02.044Z,84.00
2018-12-31T23:53:31.386Z,84.00
2018-12-31T23:56:03.108Z,84.00
2018-12-31T23:58:31.122Z,84.00
